Overview Statistics Trail Chart Weather Telemetry Raw packets
 

This is the latest recevied weather packets stored in our database for station/object EA4URC-13. If no packets are shown the sender has not sent any weather packets the latest 10 day(s).

<< 1 2 3 4 >>
Time Temp. Humidity Pressure Rain* Wind** Luminosity Snow
1788620003 30.56° C 15% 1014.9 hPa - - - -
1788619102 30° C 16% 1015.2 hPa - - - -
1788618202 30.56° C 15% 1015.2 hPa - - - -
1788617302 30° C 16% 1015.5 hPa - - - -
1788616402 30° C 16% 1015.7 hPa - - - -
1788615502 31.67° C 16% 1015.2 hPa - - - -
1788614602 31.11° C 15% 1015.5 hPa - - - -
1788613702 30.56° C 16% 1015.8 hPa - - - -
1788612802 31.11° C 16% 1015.5 hPa - - - -
1788611996 31.11° C 17% 1015.9 hPa - - - -
1788611902 31.11° C 17% 1015.9 hPa - - - -
1788611002 31.11° C 16% 1015.8 hPa - - - -
1788610102 32.22° C 16% 1015.4 hPa - - - -
1788609202 32.78° C 16% 1015.5 hPa - - - -
1788608302 31.11° C 17% 1016.3 hPa - - - -
1788607402 30° C 18% 1016.8 hPa - - - -
1788606502 29.44° C 18% 1016.9 hPa - - - -
1788605602 31.11° C 18% 1016.5 hPa - - - -
1788603802 29.44° C 20% 1017.3 hPa - - - -
1788602902 29.44° C 20% 1017 hPa - - - -
1788602002 29.44° C 20% 1017 hPa - - - -
1788601102 29.44° C 20% 1017.1 hPa - - - -
1788600202 28.89° C 21% 1017.4 hPa - - - -
1788599302 28.33° C 21% 1017.6 hPa - - - -
1788598402 27.22° C 22% 1017.9 hPa - - - -

* Rain since midnight (hover to see other rain measurements)
** Current wind speed in m/s (hover to see current wind gust speed)